Dimondale, Michigan
Current Conditions -  °F | °C
As of 1:21 AM on Thursday 23 Oct 2014 (Local Time) from KLAN Reporting Station
Haze Haze  
Wind Chill: 35°   Ceiling: Unl
Heat Index: 35°   Visibility: 1.2mi
Dew Point: 33°   Wind: 0mph
Humidity: 92%   Direction: NA
Pressure: 30.3"   Gusts: NA
Location:  42.65°N, 84.65°W
Report Text: KLAN 230521Z 00000KT 1 1/4SM BR CLR 02/01 A3030 RMK AO2 T00170006
Loading
Personal Weather Stations






























Interactive Weather Map
Tropical Storm Tracking
New forecast layout! Learn more

10-Day Weather Forecast

Advertisements
Track Severe Weather on mobile